Time;durP1;ratioP1;P1;durP2;ratioP2;P2;SDS_P1;SDS_P2;PMS_P1;PMS_P2;Temp;Humidity;BMP_temperature;BMP_pressure;BME280_temperature;BME280_humidity;BME280_pressure;Samples;Min_cycle;Max_cycle;Signal;HPM_P1;HPM_P2
2022/10/10 00:01:19;;;;;;;12.88;7.43;;;;;;;7.50;99.66;100486.16;5094206;28;20032;-81
2022/10/10 00:03:45;;;;;;;13.18;7.63;;;;;;;7.49;100.00;100489.59;5094380;28;20055;-81
2022/10/10 00:06:12;;;;;;;14.50;8.55;;;;;;;7.52;100.00;100486.09;5093873;28;20048;-81
2022/10/10 00:08:38;;;;;;;14.45;8.38;;;;;;;7.53;99.72;100480.03;5094261;28;20024;-81
2022/10/10 00:11:04;;;;;;;15.60;8.55;;;;;;;7.48;100.00;100485.31;5094024;28;20031;-81
2022/10/10 00:13:30;;;;;;;17.10;7.35;;;;;;;7.42;100.00;100473.34;5093949;28;20020;-81
2022/10/10 00:15:55;;;;;;;11.93;7.68;;;;;;;7.47;100.00;100479.28;5093787;28;20565;-81
2022/10/10 00:18:21;;;;;;;15.90;7.97;;;;;;;7.36;100.00;100460.50;5093795;28;20130;-81
2022/10/10 00:20:46;;;;;;;17.35;8.80;;;;;;;7.29;100.00;100456.34;5094040;28;20058;-81
2022/10/10 00:23:11;;;;;;;12.95;7.63;;;;;;;7.36;100.00;100481.22;5092324;28;20150;-81
2022/10/10 00:25:37;;;;;;;20.05;8.50;;;;;;;7.35;100.00;100476.94;5093820;28;20141;-81
2022/10/10 00:28:03;;;;;;;17.45;7.90;;;;;;;7.29;100.00;100471.00;5093443;28;20099;-81
2022/10/10 00:30:29;;;;;;;16.45;8.38;;;;;;;7.29;100.00;100465.81;5093865;28;20027;-81
2022/10/10 00:32:54;;;;;;;15.05;8.82;;;;;;;7.30;100.00;100471.00;5093740;28;20102;-81
2022/10/10 00:35:20;;;;;;;15.93;7.75;;;;;;;7.21;100.00;100455.63;5093429;28;20069;-81
2022/10/10 00:37:45;;;;;;;13.68;7.95;;;;;;;7.24;100.00;100465.91;5093596;28;20374;-81
2022/10/10 00:40:10;;;;;;;10.52;7.15;;;;;;;7.21;100.00;100448.72;5093627;28;20027;-81
2022/10/10 00:42:36;;;;;;;14.05;7.25;;;;;;;7.10;100.00;100437.69;5092255;28;20013;-81
2022/10/10 00:45:23;;;;;;;17.30;8.07;;;;;;;7.16;100.00;100447.06;5093407;28;20499;-81
2022/10/10 00:47:50;;;;;;;15.40;8.10;;;;;;;7.10;100.00;100448.06;5093462;28;20016;-81
2022/10/10 00:50:19;;;;;;;14.90;8.57;;;;;;;7.00;100.00;100431.84;5093001;28;20024;-81
2022/10/10 00:52:45;;;;;;;15.98;9.10;;;;;;;7.06;100.00;100443.81;5093147;28;20487;-81
2022/10/10 00:55:12;;;;;;;17.13;8.77;;;;;;;7.01;100.00;100440.47;5092860;28;20032;-81
2022/10/10 00:57:38;;;;;;;14.05;8.05;;;;;;;7.03;100.00;100435.25;5093297;28;20111;-81
2022/10/10 01:00:04;;;;;;;16.33;8.18;;;;;;;6.96;100.00;100426.75;5093017;28;20108;-81
2022/10/10 01:02:29;;;;;;;15.35;9.45;;;;;;;6.98;100.00;100427.56;5093097;28;20022;-81
2022/10/10 01:04:55;;;;;;;13.52;8.13;;;;;;;6.88;100.00;100418.28;5093108;28;20035;-81
2022/10/10 01:07:27;;;;;;;14.90;8.70;;;;;;;6.88;100.00;100419.13;5092673;28;20055;-81
2022/10/10 01:09:55;;;;;;;13.93;7.97;;;;;;;6.85;100.00;100414.00;5093132;28;20028;-81
2022/10/10 01:12:59;;;;;;;17.38;9.27;;;;;;;6.83;100.00;100417.53;5092767;28;20484;-81
2022/10/10 01:15:37;;;;;;;14.13;8.88;;;;;;;6.79;100.00;100415.88;5092678;28;20020;-81
2022/10/10 01:18:14;;;;;;;16.35;9.43;;;;;;;6.80;100.00;100417.56;5092050;28;20051;-81
2022/10/10 01:20:53;;;;;;;19.00;10.10;;;;;;;6.77;100.00;100400.34;5092916;28;20027;-81
2022/10/10 01:23:52;;;;;;;19.15;9.82;;;;;;;6.67;100.00;100394.50;5092452;28;20099;-81
2022/10/10 01:27:16;;;;;;;16.85;9.48;;;;;;;6.72;100.00;100403.03;5092450;28;20099;-81
2022/10/10 01:29:46;;;;;;;14.38;8.73;;;;;;;6.68;100.00;100400.53;4952019;28;20048;-81
2022/10/10 01:32:25;;;;;;;22.88;10.65;;;;;;;6.56;100.00;100380.91;4951699;29;20041;-81
2022/10/10 01:34:57;;;;;;;17.42;10.82;;;;;;;6.65;100.00;100395.41;4951727;28;20078;-81
2022/10/10 01:37:42;;;;;;;13.95;10.10;;;;;;;6.63;100.00;100392.84;4935514;29;20043;-81
2022/10/10 01:40:20;;;;;;;20.38;11.73;;;;;;;6.58;100.00;100367.94;4951700;28;20067;-81
2022/10/10 01:42:57;;;;;;;18.27;11.30;;;;;;;6.52;100.00;100355.09;4951936;28;20027;-81
2022/10/10 01:45:23;;;;;;;16.67;10.52;;;;;;;6.53;100.00;100357.69;4951596;28;20043;-81
2022/10/10 01:47:50;;;;;;;18.60;10.63;;;;;;;6.50;100.00;100362.91;4951689;29;20035;-81
2022/10/10 01:50:19;;;;;;;18.80;11.13;;;;;;;6.53;100.00;100361.97;4951410;29;20102;-81
2022/10/10 01:53:03;;;;;;;19.48;11.10;;;;;;;6.52;100.00;100371.47;4951639;29;20032;-81
2022/10/10 01:55:34;;;;;;;16.02;9.93;;;;;;;6.57;100.00;100371.41;4951705;29;20494;-81
2022/10/10 01:58:03;;;;;;;;;;;;;;;6.56;100.00;100369.69;4952370;29;20047;-81
2022/10/10 02:00:34;;;;;;;17.67;10.77;;;;;;;6.45;100.00;100347.47;4951587;29;20315;-81
2022/10/10 02:03:39;;;;;;;21.60;11.80;;;;;;;6.47;100.00;100355.19;4964514;28;20030;-81
2022/10/10 02:06:20;;;;;;;15.57;10.80;;;;;;;6.45;100.00;100354.38;5008777;28;20443;-81
2022/10/10 02:08:50;;;;;;;17.80;10.98;;;;;;;6.47;100.00;100363.81;5049485;28;20040;-81
2022/10/10 02:11:16;;;;;;;19.25;10.23;;;;;;;6.44;100.00;100352.66;5049166;28;20037;-81
2022/10/10 02:13:48;;;;;;;14.90;10.88;;;;;;;6.47;100.00;100347.44;5049317;28;20373;-81
2022/10/10 02:16:17;;;;;;;20.50;10.35;;;;;;;6.39;100.00;100346.72;5048998;28;20063;-81
2022/10/10 02:18:44;;;;;;;18.45;10.60;;;;;;;6.43;100.00;100351.81;5049211;28;20021;-81
2022/10/10 02:21:12;;;;;;;14.10;9.88;;;;;;;6.36;100.00;100339.88;5049049;28;20051;-81
2022/10/10 02:23:42;;;;;;;19.17;11.00;;;;;;;6.39;100.00;100341.53;5049366;28;20029;-81
2022/10/10 02:26:11;;;;;;;17.42;10.57;;;;;;;6.38;100.00;100343.28;5049055;28;20052;-81
2022/10/10 02:28:36;;;;;;;18.27;9.85;;;;;;;6.40;100.00;100343.25;5049240;28;20080;-81
2022/10/10 02:31:07;;;;;;;19.50;9.98;;;;;;;6.39;100.00;100331.19;5052134;28;20069;-81
2022/10/10 02:33:43;;;;;;;;;;;;;;;6.44;100.00;100337.13;5036760;28;20450;-81
2022/10/10 02:36:09;;;;;;;22.85;11.65;;;;;;;6.39;100.00;100329.47;5052892;28;19909;-81
2022/10/10 02:38:35;;;;;;;20.98;11.48;;;;;;;6.34;100.00;100317.50;5053475;28;20025;-81
2022/10/10 02:41:02;;;;;;;21.85;12.93;;;;;;;6.39;100.00;100324.28;5092793;28;20036;-81
2022/10/10 02:43:31;;;;;;;20.65;12.75;;;;;;;6.38;100.00;100320.00;5095556;28;20024;-81
2022/10/10 02:46:00;;;;;;;18.92;12.10;;;;;;;6.33;100.00;100300.28;5095915;28;20020;-81
2022/10/10 02:48:25;;;;;;;20.63;11.35;;;;;;;6.36;100.00;100316.59;5095568;28;20095;-81
2022/10/10 02:50:50;;;;;;;21.42;13.23;;;;;;;6.28;100.00;100297.78;5095802;28;20154;-81
2022/10/10 02:53:16;;;;;;;19.67;10.85;;;;;;;6.38;100.00;100311.38;5095429;28;20028;-81
2022/10/10 02:55:41;;;;;;;22.95;13.10;;;;;;;6.37;100.00;100300.19;5094179;28;20028;-80
2022/10/10 02:58:06;;;;;;;20.90;12.80;;;;;;;6.39;100.00;100289.78;5095420;28;20028;-80
2022/10/10 03:00:32;;;;;;;22.77;11.98;;;;;;;6.41;100.00;100291.47;5095166;28;20020;-80
2022/10/10 03:02:57;;;;;;;20.35;13.02;;;;;;;6.54;100.00;100302.44;5095627;28;20055;-80
2022/10/10 03:05:22;;;;;;;21.95;12.50;;;;;;;6.47;100.00;100299.13;5095348;28;20047;-80
2022/10/10 03:07:49;;;;;;;20.30;11.48;;;;;;;6.49;100.00;100299.09;5095379;28;20027;-80
2022/10/10 03:10:14;;;;;;;20.25;12.45;;;;;;;6.38;100.00;100278.59;5095153;28;20078;-80
2022/10/10 03:12:40;;;;;;;19.83;12.38;;;;;;;6.49;100.00;100284.44;5095168;28;20019;-80
2022/10/10 03:15:05;;;;;;;17.42;11.15;;;;;;;6.54;100.00;100289.50;5095419;28;20028;-80
2022/10/10 03:17:31;;;;;;;21.52;12.20;;;;;;;6.55;100.00;100282.59;5093744;28;20089;-80
2022/10/10 03:19:56;;;;;;;15.65;10.75;;;;;;;6.46;100.00;100268.94;5095186;28;20080;-80
2022/10/10 03:22:21;;;;;;;18.33;12.00;;;;;;;6.42;100.00;100261.28;5094942;28;20336;-80
2022/10/10 03:24:47;;;;;;;16.55;11.75;;;;;;;6.53;100.00;100281.75;5094970;28;20462;-80
2022/10/10 03:27:12;;;;;;;19.33;11.05;;;;;;;6.47;100.00;100262.88;5094651;28;20020;-80
2022/10/10 03:29:37;;;;;;;18.25;11.55;;;;;;;6.61;100.00;100266.94;5094849;28;20024;-80
2022/10/10 03:32:03;;;;;;;18.08;11.45;;;;;;;6.58;100.00;100274.78;5095103;28;20020;-80
2022/10/10 03:34:28;;;;;;;21.35;11.15;;;;;;;6.45;100.00;100253.47;5094692;28;20031;-80
2022/10/10 03:36:53;;;;;;;23.02;10.60;;;;;;;6.51;100.00;100263.69;5094747;28;20467;-80
2022/10/10 03:39:19;;;;;;;21.30;10.35;;;;;;;6.48;100.00;100271.50;5093176;28;20020;-80
2022/10/10 03:41:44;;;;;;;22.58;12.32;;;;;;;6.48;100.00;100255.97;5094141;28;20020;-80
2022/10/10 03:44:10;;;;;;;19.35;10.73;;;;;;;6.49;100.00;100258.56;5094556;28;20016;-80
2022/10/10 03:46:35;;;;;;;15.32;10.57;;;;;;;6.44;100.00;100247.41;5094362;28;20024;-80
2022/10/10 03:49:00;;;;;;;19.45;11.88;;;;;;;6.46;100.00;100237.91;5094681;28;20024;-80
2022/10/10 03:51:26;;;;;;;20.67;11.00;;;;;;;6.43;100.00;100250.88;5094347;28;20020;-80
2022/10/10 03:53:53;;;;;;;17.88;11.35;;;;;;;6.41;100.00;100251.81;5094494;28;20024;-80
2022/10/10 03:56:18;;;;;;;15.57;11.27;;;;;;;6.32;100.00;100241.63;5092750;28;20031;-80
2022/10/10 03:58:43;;;;;;;16.13;10.75;;;;;;;6.37;100.00;100242.41;5094257;28;20028;-80
2022/10/10 04:01:09;;;;;;;19.23;11.45;;;;;;;6.38;100.00;100249.28;5093098;28;20179;-80
2022/10/10 04:03:34;;;;;;;20.17;11.80;;;;;;;6.37;100.00;100255.34;5094345;28;20111;-80
2022/10/10 04:05:59;;;;;;;15.75;11.18;;;;;;;6.31;100.00;100253.72;5094014;28;20048;-80
2022/10/10 04:08:25;;;;;;;20.35;12.25;;;;;;;6.28;100.00;100239.97;5093974;28;20024;-80
2022/10/10 04:10:52;;;;;;;16.52;11.05;;;;;;;6.25;100.00;100246.94;5094058;28;20024;-80
2022/10/10 04:13:18;;;;;;;21.63;11.27;;;;;;;6.29;100.00;100241.72;5093780;28;20020;-80
2022/10/10 04:15:44;;;;;;;16.42;11.45;;;;;;;6.23;100.00;100238.34;5094043;28;20020;-80
2022/10/10 04:18:09;;;;;;;17.40;11.38;;;;;;;6.17;100.00;100241.06;5094099;28;20024;-80
2022/10/10 04:20:35;;;;;;;15.70;11.00;;;;;;;6.16;100.00;100239.38;5093646;28;20035;-80
2022/10/10 04:23:00;;;;;;;15.80;10.95;;;;;;;6.11;100.00;100230.84;5093921;28;20055;-80
2022/10/10 04:25:25;;;;;;;14.63;11.02;;;;;;;6.07;100.00;100220.56;5093569;28;20436;-80
2022/10/10 04:27:51;;;;;;;18.77;12.55;;;;;;;6.08;100.00;100219.69;5093751;28;20478;-80
2022/10/10 04:30:16;;;;;;;18.23;11.43;;;;;;;6.11;100.00;100232.56;5093748;28;20062;-80
2022/10/10 04:32:42;;;;;;;15.90;11.80;;;;;;;5.99;100.00;100218.16;5093835;28;20027;-80
2022/10/10 04:35:07;;;;;;;16.50;11.88;;;;;;;6.01;100.00;100216.38;5093731;28;20020;-80
2022/10/10 04:37:33;;;;;;;18.55;12.82;;;;;;;5.98;100.00;100214.72;5093255;28;20449;-80
2022/10/10 04:39:59;;;;;;;23.30;13.95;;;;;;;5.96;100.00;100203.53;5093556;28;20028;-80
2022/10/10 04:42:24;;;;;;;19.98;12.93;;;;;;;5.96;100.00;100215.59;5093165;28;20480;-80
2022/10/10 04:44:49;;;;;;;21.50;13.88;;;;;;;5.93;100.00;100202.72;5093592;28;20024;-80
2022/10/10 04:47:15;;;;;;;22.25;13.38;;;;;;;5.92;100.00;100199.28;5093279;28;20058;-81
2022/10/10 04:49:40;;;;;;;23.98;13.13;;;;;;;5.90;100.00;100200.16;5093486;28;20099;-80
2022/10/10 04:52:07;;;;;;;18.45;13.13;;;;;;;5.84;100.00;100203.72;5092849;28;20568;-80
2022/10/10 04:54:32;;;;;;;22.17;15.02;;;;;;;5.84;100.00;100211.47;5092920;28;20039;-80
2022/10/10 04:56:57;;;;;;;18.38;13.75;;;;;;;5.84;100.00;100208.88;5078874;28;20024;-80
2022/10/10 04:59:23;;;;;;;24.45;15.82;;;;;;;5.83;100.00;100208.94;5072773;28;20021;-81
2022/10/10 05:01:48;;;;;;;21.35;14.70;;;;;;;5.74;100.00;100191.84;5071676;28;20493;-81
2022/10/10 05:04:13;;;;;;;23.52;14.75;;;;;;;5.72;100.00;100183.25;5072776;28;20024;-81
2022/10/10 05:06:39;;;;;;;21.08;15.40;;;;;;;5.73;100.00;100205.63;5071147;28;20051;-81
2022/10/10 05:09:04;;;;;;;29.08;16.30;;;;;;;5.73;100.00;100206.53;5072746;28;20023;-80
2022/10/10 05:11:30;;;;;;;24.80;16.00;;;;;;;5.66;100.00;100188.56;5072253;28;20506;-81
2022/10/10 05:13:55;;;;;;;25.45;15.43;;;;;;;5.66;100.00;100198.91;5072468;28;20095;-80
2022/10/10 05:16:20;;;;;;;22.02;13.60;;;;;;;5.62;100.00;100200.69;5072254;28;20031;-81
2022/10/10 05:18:46;;;;;;;23.85;15.70;;;;;;;5.55;100.00;100190.47;5072536;28;20029;-82
2022/10/10 05:21:11;;;;;;;25.95;18.70;;;;;;;5.60;100.00;100198.97;5072603;28;20028;-82
2022/10/10 05:23:37;;;;;;;30.65;19.35;;;;;;;5.56;100.00;100195.59;5071960;28;20019;-82
2022/10/10 05:26:03;;;;;;;26.58;16.20;;;;;;;5.59;100.00;100195.56;5072253;28;20115;-82
2022/10/10 05:28:29;;;;;;;29.08;18.30;;;;;;;5.56;100.00;100185.25;5072010;28;20017;-82
2022/10/10 05:30:55;;;;;;;21.85;15.82;;;;;;;5.56;100.00;100190.44;5071126;28;20032;-82
2022/10/10 05:33:20;;;;;;;27.15;16.52;;;;;;;5.57;100.00;100188.72;5072077;28;20499;-81
2022/10/10 05:35:45;;;;;;;27.42;16.90;;;;;;;5.53;100.00;100179.31;5072609;28;20364;-82
2022/10/10 05:38:11;;;;;;;27.10;16.88;;;;;;;5.63;100.00;100192.03;5072253;28;20028;-82
2022/10/10 05:40:40;;;;;;;23.88;16.02;;;;;;;5.67;100.00;100183.34;5072039;28;20497;-82
2022/10/10 05:43:05;;;;;;;24.35;16.30;;;;;;;5.79;100.00;100181.44;5072470;28;20364;-82
2022/10/10 05:45:31;;;;;;;33.13;18.98;;;;;;;5.86;100.00;100180.44;5072378;28;20020;-82
2022/10/10 05:47:56;;;;;;;21.85;16.38;;;;;;;5.98;100.00;100185.38;5072304;28;20546;-82
2022/10/10 05:50:37;;;;;;;27.40;16.33;;;;;;;6.11;100.00;100180.84;5071839;28;20421;-82
2022/10/10 05:53:02;;;;;;;;;;;;;;;6.24;100.00;100197.84;5072496;28;20181;-82
2022/10/10 05:55:28;;;;;;;22.92;14.90;;;;;;;6.32;100.00;100184.72;5072002;28;20425;-82
2022/10/10 05:57:53;;;;;;;21.58;15.85;;;;;;;6.50;100.00;100192.97;5072065;28;20031;-82
2022/10/10 06:00:18;;;;;;;20.13;15.38;;;;;;;6.61;100.00;100173.75;5071645;28;20020;-82
2022/10/10 06:02:44;;;;;;;22.88;15.88;;;;;;;6.66;100.00;100162.44;5072030;28;20024;-82
2022/10/10 06:05:09;;;;;;;29.05;18.70;;;;;;;6.77;100.00;100166.50;5071750;28;20059;-82
2022/10/10 06:07:35;;;;;;;27.20;17.35;;;;;;;6.87;100.00;100171.44;5071889;28;20045;-82
2022/10/10 06:10:00;;;;;;;23.33;15.80;;;;;;;7.14;100.00;100177.69;5072400;28;20527;-82
2022/10/10 06:12:26;;;;;;;28.42;18.92;;;;;;;7.27;100.00;100178.25;5071693;28;20392;-82
2022/10/10 06:14:51;;;;;;;32.30;19.70;;;;;;;7.18;100.00;100168.13;5072324;28;20410;-82
2022/10/10 06:17:16;;;;;;;24.35;16.75;;;;;;;7.33;100.00;100156.50;5071843;28;20090;-82
2022/10/10 06:19:42;;;;;;;28.35;18.55;;;;;;;7.64;100.00;100161.78;5071809;28;20497;-82
2022/10/10 06:22:08;;;;;;;32.50;19.50;;;;;;;7.99;98.93;100166.84;5071749;28;20016;-82
2022/10/10 06:24:33;;;;;;;24.90;18.42;;;;;;;8.20;98.36;100170.56;5071402;28;20021;-82
2022/10/10 06:26:58;;;;;;;30.05;20.13;;;;;;;8.33;96.32;100165.88;5071919;28;20030;-82
2022/10/10 06:29:24;;;;;;;23.33;16.55;;;;;;;8.59;96.30;100164.28;5070333;28;20419;-82
2022/10/10 06:31:49;;;;;;;25.05;19.08;;;;;;;8.56;94.57;100151.44;5071802;28;20023;-82
2022/10/10 06:34:15;;;;;;;25.30;17.30;;;;;;;8.86;94.22;100147.88;5071673;28;20426;-82
2022/10/10 06:36:40;;;;;;;31.40;19.35;;;;;;;9.18;93.29;100152.00;5071328;28;20089;-82
2022/10/10 06:39:05;;;;;;;26.45;19.42;;;;;;;9.45;91.09;100146.81;5071577;28;20108;-82
2022/10/10 06:41:30;;;;;;;31.17;21.08;;;;;;;9.46;90.40;100151.09;5071639;28;20447;-82
2022/10/10 06:43:56;;;;;;;32.85;21.77;;;;;;;9.75;88.67;100137.09;5071766;28;20392;-82
2022/10/10 06:46:21;;;;;;;26.73;18.08;;;;;;;10.22;88.13;100142.31;5071422;28;20033;-82
2022/10/10 06:48:47;;;;;;;30.83;20.55;;;;;;;10.28;86.34;100152.56;5071625;28;20379;-82
2022/10/10 06:51:14;;;;;;;25.77;17.83;;;;;;;10.56;85.33;100131.50;5071503;28;20027;-82
2022/10/10 06:53:40;;;;;;;28.15;17.92;;;;;;;10.77;85.55;100149.81;5071178;28;20024;-82
2022/10/10 06:56:06;;;;;;;27.75;18.27;;;;;;;10.89;83.79;100144.97;5071621;28;20020;-82
2022/10/10 06:58:32;;;;;;;28.02;19.17;;;;;;;11.36;82.79;100143.94;5071280;28;20410;-82
2022/10/10 07:01:00;;;;;;;25.95;17.77;;;;;;;11.74;81.10;100150.13;5071481;28;20089;-83
2022/10/10 07:03:27;;;;;;;27.48;18.95;;;;;;;12.26;78.40;100149.59;5071068;28;20031;-82
2022/10/10 07:05:55;;;;;;;25.63;17.08;;;;;;;12.32;78.78;100152.78;5071097;28;20049;-82
2022/10/10 07:08:22;;;;;;;25.42;18.30;;;;;;;12.55;77.44;100140.41;5071535;28;20048;-82
2022/10/10 07:10:47;;;;;;;26.15;17.73;;;;;;;12.56;76.42;100156.03;5068580;28;20116;-82
2022/10/10 07:13:13;;;;;;;26.42;18.45;;;;;;;12.62;76.61;100145.28;5068886;28;20124;-82
2022/10/10 07:15:39;;;;;;;29.65;19.50;;;;;;;11.94;77.06;100152.75;5068922;28;20526;-82
2022/10/10 07:18:05;;;;;;;24.40;18.77;;;;;;;11.47;79.57;100155.63;5072354;28;20036;-82
2022/10/10 07:20:30;;;;;;;27.33;18.35;;;;;;;11.32;80.94;100144.97;5072071;28;20036;-82
2022/10/10 07:22:56;;;;;;;30.27;18.95;;;;;;;11.36;80.60;100126.53;5072327;28;20446;-82
2022/10/10 07:25:21;;;;;;;25.13;18.35;;;;;;;11.39;80.92;100139.44;5072281;28;20106;-82
2022/10/10 07:27:47;;;;;;;24.55;16.55;;;;;;;11.53;81.08;100138.00;5071982;28;20028;-82
2022/10/10 07:30:13;;;;;;;22.65;17.65;;;;;;;11.55;81.31;100144.03;5072189;28;20036;-82
2022/10/10 07:32:38;;;;;;;21.45;15.65;;;;;;;11.31;80.85;100133.69;5071958;28;20135;-82
2022/10/10 07:35:04;;;;;;;26.25;16.58;;;;;;;11.44;81.51;100136.63;5072109;28;20119;-82
2022/10/10 07:37:29;;;;;;;27.20;18.65;;;;;;;11.42;81.12;100141.09;5071740;28;20041;-82
2022/10/10 07:39:55;;;;;;;25.58;15.70;;;;;;;11.43;81.44;100127.13;5055218;28;20058;-82
2022/10/10 07:42:20;;;;;;;19.30;14.23;;;;;;;11.63;80.79;100134.94;5073688;28;20084;-82
2022/10/10 07:44:45;;;;;;;24.33;16.27;;;;;;;11.39;80.99;100133.38;5074244;28;20020;-82
2022/10/10 07:47:11;;;;;;;23.42;15.40;;;;;;;11.43;82.02;100135.78;5074398;28;20032;-82
2022/10/10 07:49:37;;;;;;;21.73;15.43;;;;;;;11.36;82.03;100118.69;5073983;28;20024;-82
2022/10/10 07:52:03;;;;;;;21.33;14.60;;;;;;;11.34;82.47;100130.97;5074176;28;20024;-83
2022/10/10 07:54:28;;;;;;;23.40;15.38;;;;;;;11.46;82.23;100120.03;5074189;28;20024;-83
2022/10/10 07:56:54;;;;;;;21.58;14.55;;;;;;;11.62;81.56;100128.00;5073990;28;20423;-82
2022/10/10 07:59:19;;;;;;;22.80;15.75;;;;;;;11.39;81.82;100117.72;5074170;28;20460;-82
2022/10/10 08:01:45;;;;;;;19.02;14.68;;;;;;;11.48;82.14;100125.16;5072542;28;20024;-83
2022/10/10 08:04:10;;;;;;;18.63;13.65;;;;;;;11.48;83.13;100112.97;5074082;28;20082;-83
2022/10/10 08:06:35;;;;;;;20.75;12.90;;;;;;;11.78;82.45;100128.19;5073590;28;20098;-83
2022/10/10 08:09:01;;;;;;;19.65;13.55;;;;;;;11.73;81.99;100120.56;5074140;28;20059;-83
2022/10/10 08:11:26;;;;;;;20.48;13.60;;;;;;;11.69;81.95;100111.19;5073845;28;20374;-83
2022/10/10 08:13:51;;;;;;;21.45;14.95;;;;;;;11.52;81.82;100111.06;5073807;28;20055;-83
2022/10/10 08:16:17;;;;;;;20.75;13.73;;;;;;;11.69;82.76;100111.19;5073833;28;20021;-83
2022/10/10 08:18:42;;;;;;;23.13;14.00;;;;;;;11.90;82.01;100121.63;5073518;28;20483;-83
2022/10/10 08:21:10;;;;;;;20.88;13.07;;;;;;;12.06;82.00;100106.13;5073670;28;20012;-83
2022/10/10 08:23:36;;;;;;;17.48;12.82;;;;;;;12.23;81.86;100101.81;5073775;28;20112;-82
2022/10/10 08:26:03;;;;;;;18.15;12.48;;;;;;;12.32;80.53;100111.00;5073698;28;20104;-83
2022/10/10 08:28:29;;;;;;;18.38;12.15;;;;;;;12.24;81.69;100098.28;5073307;28;20028;-82
2022/10/10 08:30:55;;;;;;;18.08;12.48;;;;;;;12.21;81.53;100101.03;5073467;28;20371;-83
2022/10/10 08:33:21;;;;;;;20.10;12.07;;;;;;;12.14;82.38;100098.78;5073460;28;20577;-83
2022/10/10 08:35:46;;;;;;;22.15;12.02;;;;;;;12.16;82.28;100087.34;5073006;28;20103;-83
2022/10/10 08:38:12;;;;;;;19.95;11.88;;;;;;;12.21;82.13;100084.50;5073422;28;20040;-83
2022/10/10 08:40:52;;;;;;;19.67;12.48;;;;;;;12.26;81.89;100099.97;5073193;28;20017;-82
2022/10/10 08:43:24;;;;;;;19.88;12.75;;;;;;;12.18;82.31;100087.28;5073335;28;20021;-83
2022/10/10 08:45:51;;;;;;;20.55;12.25;;;;;;;12.07;82.48;100095.59;5072977;28;20048;-83
2022/10/10 08:48:23;;;;;;;18.42;11.10;;;;;;;12.13;83.45;100084.03;5073021;28;20449;-82
2022/10/10 08:50:56;;;;;;;26.33;12.27;;;;;;;12.21;83.67;100095.81;5072741;28;20467;-82
2022/10/10 08:53:33;;;;;;;21.90;12.15;;;;;;;12.08;83.69;100089.47;5073104;28;20047;-83
2022/10/10 08:56:00;;;;;;;21.10;13.18;;;;;;;12.16;83.54;100083.88;5072964;28;20020;-83
2022/10/10 08:58:36;;;;;;;19.08;12.85;;;;;;;12.08;83.97;100071.19;5072972;28;20062;-83
2022/10/10 09:01:04;;;;;;;21.25;13.88;;;;;;;12.20;84.17;100078.44;5073079;28;20099;-83
2022/10/10 09:03:40;;;;;;;21.60;12.35;;;;;;;12.20;84.36;100080.22;5072794;28;20027;-83
2022/10/10 09:06:14;;;;;;;14.48;11.20;;;;;;;12.23;84.62;100077.47;5072759;28;20127;-83
2022/10/10 09:09:07;;;;;;;16.92;12.18;;;;;;;12.32;83.95;100077.03;5072463;28;20361;-82
2022/10/10 09:11:54;;;;;;;21.75;12.07;;;;;;;12.39;84.40;100060.16;5072539;28;20423;-82
2022/10/10 09:14:25;;;;;;;16.90;11.52;;;;;;;12.52;85.02;100073.50;5072735;28;20022;-82
2022/10/10 09:17:14;;;;;;;20.45;12.77;;;;;;;12.52;84.83;100051.75;5072213;28;20056;-82
2022/10/10 09:20:05;;;;;;;14.05;10.20;;;;;;;12.59;85.09;100051.34;5010135;28;20503;-82
2022/10/10 09:22:35;;;;;;;17.33;10.15;;;;;;;12.59;85.15;100038.28;4952144;29;20341;-82
2022/10/10 09:25:07;;;;;;;18.50;10.27;;;;;;;12.61;85.56;100039.06;4952038;29;20070;-82
2022/10/10 09:27:37;;;;;;;16.60;11.57;;;;;;;12.67;85.73;100038.75;4951842;29;20046;-82
2022/10/10 09:30:16;;;;;;;19.50;11.10;;;;;;;12.73;85.80;100040.25;4952159;29;20098;-82
2022/10/10 09:32:49;;;;;;;17.00;11.38;;;;;;;12.75;85.38;100043.63;4951775;29;20114;-83
2022/10/10 09:35:19;;;;;;;19.35;11.68;;;;;;;12.78;84.99;100047.84;4952209;29;20066;-82
2022/10/10 09:37:49;;;;;;;15.32;10.57;;;;;;;12.76;85.35;100047.06;4951603;29;20075;-82
2022/10/10 09:40:30;;;;;;;18.85;11.32;;;;;;;12.80;84.85;100031.16;4951696;28;20117;-82
2022/10/10 09:42:55;;;;;;;;;;;;;;;12.84;85.06;100037.94;4952058;29;20115;-82
2022/10/10 09:45:31;;;;;;;13.63;9.85;;;;;;;12.93;85.55;100034.84;4951766;29;19988;-82
2022/10/10 09:47:57;;;;;;;12.98;9.43;;;;;;;13.06;85.21;100032.50;4951492;29;20031;-83
2022/10/10 09:50:23;;;;;;;17.00;10.73;;;;;;;13.13;85.27;100025.16;4951717;29;20408;-83
2022/10/10 09:52:50;;;;;;;16.67;9.65;;;;;;;13.21;85.84;100029.06;4951485;29;20043;-82
2022/10/10 09:55:33;;;;;;;16.85;9.90;;;;;;;13.36;84.84;100030.09;4951691;29;20035;-83
2022/10/10 09:58:09;;;;;;;18.00;10.70;;;;;;;13.31;83.89;100026.00;4993144;28;20572;-83
2022/10/10 10:00:35;;;;;;;13.73;9.32;;;;;;;13.38;84.24;100030.84;5071796;28;20028;-82
2022/10/10 10:03:12;;;;;;;12.93;9.48;;;;;;;13.47;84.80;100037.38;5071980;28;20017;-83
2022/10/10 10:05:40;;;;;;;12.90;8.50;;;;;;;13.60;84.84;100033.19;5071662;28;20102;-83
2022/10/10 10:08:21;;;;;;;13.77;9.98;;;;;;;13.66;83.45;100018.94;5072035;28;20021;-83
2022/10/10 10:10:47;;;;;;;18.35;8.80;;;;;;;13.64;84.04;100020.78;5071615;28;20025;-83
2022/10/10 10:13:18;;;;;;;19.77;10.10;;;;;;;13.73;84.19;100036.00;5071952;28;20016;-83
2022/10/10 10:15:51;;;;;;;14.98;9.98;;;;;;;13.75;84.21;100031.53;5071565;28;20340;-83
2022/10/10 10:18:16;;;;;;;12.90;9.98;;;;;;;13.85;84.23;100031.88;5071969;28;20479;-83
2022/10/10 10:20:51;;;;;;;15.90;9.43;;;;;;;13.79;83.90;100014.72;5071774;28;20063;-83
2022/10/10 10:23:26;;;;;;;12.25;8.85;;;;;;;13.95;83.61;100038.31;5071902;28;20024;-83
2022/10/10 10:26:05;;;;;;;12.73;8.85;;;;;;;14.05;83.28;100031.66;5071556;28;20012;-83
2022/10/10 10:28:31;;;;;;;13.07;8.90;;;;;;;14.08;84.05;100030.63;5071733;28;20061;-83
2022/10/10 10:30:57;;;;;;;12.27;9.27;;;;;;;14.10;83.42;100019.13;5071606;28;20024;-83
2022/10/10 10:33:25;;;;;;;15.10;9.05;;;;;;;14.20;83.58;100009.00;5071809;28;20024;-83
2022/10/10 10:36:09;;;;;;;14.55;9.52;;;;;;;14.32;82.97;100007.44;5068732;28;20330;-83
2022/10/10 10:38:46;;;;;;;12.75;9.32;;;;;;;14.29;83.17;99994.53;5069134;28;20581;-82
2022/10/10 10:41:37;;;;;;;16.88;9.35;;;;;;;14.44;82.82;100001.53;5069223;28;20030;-82
2022/10/10 10:44:14;;;;;;;12.00;9.48;;;;;;;14.37;82.63;99994.97;5069231;28;20059;-83
2022/10/10 10:46:45;;;;;;;11.32;8.77;;;;;;;14.41;82.84;99996.44;5069308;28;20123;-82
2022/10/10 10:49:19;;;;;;;17.25;9.65;;;;;;;14.37;82.72;99979.25;5069207;28;20070;-82
2022/10/10 10:51:53;;;;;;;13.10;8.77;;;;;;;14.41;83.07;99981.59;5070954;28;20357;-82
2022/10/10 10:54:40;;;;;;;13.55;8.98;;;;;;;14.40;84.55;99966.78;5072935;28;20060;-82
2022/10/10 10:57:41;;;;;;;16.05;9.68;;;;;;;14.46;83.85;99968.22;5072686;28;20119;-83
2022/10/10 11:00:14;;;;;;;18.45;9.88;;;;;;;14.50;82.97;99955.81;5013060;28;20042;-83
2022/10/10 11:03:04;;;;;;;14.02;8.50;;;;;;;14.55;83.16;99956.41;5012693;28;20041;-83
2022/10/10 11:05:53;;;;;;;13.95;8.80;;;;;;;14.68;83.34;99952.13;5012722;28;20117;-83
2022/10/10 11:08:47;;;;;;;15.32;9.13;;;;;;;14.76;83.19;99946.44;5032958;28;20017;-83
2022/10/10 11:11:45;;;;;;;12.02;8.77;;;;;;;14.90;81.57;99946.44;5015898;28;20425;-82
2022/10/10 11:14:33;;;;;;;14.32;8.50;;;;;;;14.88;80.34;99940.47;5016065;28;20431;-83
2022/10/10 11:17:18;;;;;;;10.52;8.32;;;;;;;14.91;80.61;99943.72;5032319;28;20400;-83
2022/10/10 11:19:55;;;;;;;15.48;9.15;;;;;;;14.94;80.21;99945.31;5032306;28;20029;-82
2022/10/10 11:22:25;;;;;;;13.98;7.90;;;;;;;14.97;80.82;99929.41;4992923;28;20465;-83
2022/10/10 11:24:57;;;;;;;13.40;8.07;;;;;;;15.11;80.72;99933.81;4992812;28;20069;-83